Timeline UpdatesTrip UpdatesNews PostsPvt PostsTravel TipsAdmin PostsConv PostsFollowed PostsChat RequestsBlog PostsPNR Posts

Disclaimer
Search
 
 
Sun Apr 20, 2014 11:14:18 ISTHomeTrainsΣChainsAtlasPNRForumGalleryNewsFAQTripsMembersLoginFeedback
No Recent News for this Train
Other Trains in the News **new
Latest...
Partially Cancelled between Azimganj-Jangipur Road on 25/1/14 #973207
Fri Jan 24, 2014 (12:52AM)
⇐ Return Journey: Train# 73152

73151/Sealdah-Jangipur Road DEMU

Jan 24 2014 (12:51AM)
Change Departure Station:
Change Arrival Station:
Post a Train Travel TipPost a Train Travel Tip **new
Post a Comment/Question/Picture/VideoPost a Comment/Question/Picture/Video
Inaugural Run
Tue Feb 21, 2012
Pantry/Catering
✕ NO Pantry Car
✕ NO Catering
RSA - Rake Sharing
Rake/Coach Composition
Loco
News    PNR    Forum    Time-Table    Availability    Fare Chart    Map    Arr/Dep History    Trips    Gallery    ΣChains    X/O    Timeline    
Travel Time: 6h 57m    44 halts    Distance: 239 km    Avg Speed: 34 km/hr
Type: DEMU
Zone: ER/Eastern
Departs @ 05:35 (Avg on time)
Platform# ???
 MTWTFS
Kolkata Sealdah/SDAH 
Arrives @ 12:32 (Avg 6m late)
Platform# ???
 MTWTFS
Noapara Mahisha/NWMS 

44 halts. 71 intermediate Stations between Kolkata Sealdah and Noapara Mahisha

Show ALL intermediate Stations  Show Old Time-Table

#CodeStation NameX/OArrivesAvgDepartsAvgHaltPFDay#KmSpeedElevZoneAddress
1SDAH»Kolkata Sealdah (20)»  -05:35+0--10.0338mERPh : 033-23503535 (For North: APC Roy Road) Kolkata 700014, West Bengal
2DDJDum Dum Junction (5)  05:47+305:48+31m316.56710mERKolkata - 700028, West Bengal
3BPBarrackpore (5)  06:02+306:03+31m--122.23812mERDist - 24 paraganas (N), West Bengal
4NHNaihati Junction (5)  06:27+106:32+05m2137.61915mERdist - North 24 paraganas - 743165, West Bengal
5BDCBandel Junction (7)  06:58+407:00+62m4146.05414mERdist - HOOGHLY, West Bengal
6BSAEBansh Baria  07:05+907:06+91m--150.47413mERBansberia, West Bengal
7TBAETribeni  07:09+1007:10+121m--154.16716mERTribeni, West Bengal
8KJUKuntighat  07:13+1207:14+121m--157.49817mERKuntighat Railway Station, West Bengal
9DMLEDumurdaha  07:16+1507:17+151m--160.75915mERDumurdahadham, West Bengal
10KMAEKhamargachhi  07:19+1507:20+161m--162.712614mERKhamargachi, West Bengal
11JITJirat (3)  07:23+1807:24+181m--169.04417mERdist - hooghly, West Bengal
12BGAEBalagarh  07:27+1807:28+181m--171.28613mERBalagarh, West Bengal
13SOAESomra Bazar (2)  07:30+1807:31+181m--174.114613mERState Highway 6, West Bengal
14BHLABehula  07:33+1707:34+171m--178.91616mERDist - Hooghly, West Bengal
15GPAEGuptipara  07:42+1707:46+144m--181.07114mERGuptipara Railway Station, West Bengal
16ABKAAmbika Kalna (4)  07:52+1507:53+191m--188.13112mERKalna, West Bengal
17BGRABaghnapara (2)  08:01+1608:02+181m--192.23416mERKalna-Memari Rd, West Bengal
18DTAEDhatrigram  08:10+1508:11+171m--196.83716mERDhatrigram, West Bengal
19SMAESamudra Garh  08:22+1608:23+191m--1103.57416mERDist - Bardhaman, West Bengal
20KLNTKalinagar (1)  08:26+2108:27+211m11107.2629mERDist - Nadia, West Bengal
21NDAENabadwip Dham (3)  08:31+2208:32+221m--1111.36515mERDist - Nadia, West Bengal
22BFZBhandartikuri  08:37+2208:38+221m--1116.87021mERDist - Bardhaman, West Bengal
23PSAEPurbasthali (2)  08:40+2308:41+231m--1119.19319mERDist - Bardhaman, West Bengal
24LKXLakshmipur (2)  08:45+2708:46+301m--1125.38214mERDist - burdhaman, West Bengal
25BQYBelerhat  08:48+2608:49+261m--1128.02719mERJajneswarpur, West Bengal
26PTAEPatuli (2)  09:00+2609:01+271m--1133.03318mERDist - bardhaman, West Bengal
27AGAEAgradwip (2)  09:10+2409:11+241m--1137.96218mERDist - Bardhaman, West Bengal
28DHAEDainhat (4)  09:17+3009:18+301m31144.11419mERDaihaat Rd, West Bengal
29KWAEKatwa Junction (5)  09:47+1409:49+242m31150.93321mERDist - Bardhaman, West Bengal
30GGLEGangatikuri (2)  10:08+2010:09+201m--1161.24419mERState Highway 6, West Bengal
31JHBNJhamatpur Baharan  10:13+2010:14+201m--1164.13826mERGoai, West Bengal
32SALESalar (2)X  10:20+2010:21+241m--1167.93526mERSalar, West Bengal
33MHTRMalihati Talibpur Road  10:25+2410:26+241m--1170.34223mERMalihati Talibpur Road, West Bengal
34TYAETenya (1)  10:32+2410:33+241m11174.54219mERTenya, West Bengal
35BZLEBazarsau (2)  10:43+2610:44+281m--1181.55721mERBazarsau, West Bengal
36CWLEChowrigacha (2)  10:52+3110:53+321m--1189.01219mERChowrigacha, West Bengal
37KTLRKanthaliya RoadX  11:06+1811:07+181m--1191.62719mERKhagraghat - Chowrigacha, West Bengal
38KNSNKarna SubarnaX  11:22+1711:23+191m--1198.27327mERKhagraghat - Chowrigacha, West Bengal
39KGLEKhagraghat Road (2)  11:32+2111:33+221m--1209.29422mERKhagraghat, West Bengal
40NLSFNiyalish Para  11:36+2111:37+211m--1213.93321mERNational Highway 34, West Bengal
41LCAELalbagh Court Road  11:43+2111:44+211m--1217.21923mERLalbagh Court Road, West Bengal
42AZAzimganj Junction (4)  12:05+912:10+105m--1223.92725mERPolice Station Rd, West Bengal
43ACLEAzimganj City (1)  12:13+1712:14+171m11225.27725mERPolice Station Rd, West Bengal
44MPLRMahipal Road  12:21+1612:22+201m--1234.21429mERLalgola, West Bengal
45MPLEMahipalX  12:29-12:30-1m--1235.910526mERLalgola, West Bengal
46NWMS•Noapara Mahisha•  12:32+612:33+61m--1239.46633mERSagardighi Railway Station, West Bengal
47MGLEManigram  12:37+1612:38+171m--1243.77137mERLalgola, West Bengal
48GALEGankar  12:45+1512:46+161m--1252.14131mERGankar, West Bengal
49JRLEJangipur Road (2)  12:56+14---1259.0-30mERRaghunathganj, West Bengal
Scroll to Top
Scroll to Bottom